createdAt,value
2023-04-15T04:30:12.721Z,4.45
2023-04-15T06:00:41.129Z,6.20
2023-04-15T06:05:42.719Z,7.25
2023-04-15T06:10:44.375Z,6.43
2023-04-15T06:15:45.714Z,6.22
2023-04-15T06:20:47.065Z,6.43
2023-04-15T06:25:48.365Z,7.28
2023-04-15T06:30:49.902Z,6.32
2023-04-15T06:35:51.663Z,5.88
2023-04-15T06:40:52.964Z,6.68
2023-04-15T06:45:54.718Z,6.80
2023-04-15T06:50:56.080Z,6.47
2023-04-15T06:55:57.448Z,7.07
2023-04-15T07:00:59.035Z,6.55
2023-04-15T07:06:00.474Z,6.30
2023-04-15T07:11:02.161Z,7.28
2023-04-15T07:16:03.855Z,7.85
2023-04-15T07:21:05.285Z,7.53
2023-04-15T07:26:06.632Z,6.97
2023-04-15T07:31:07.968Z,6.55
2023-04-15T07:36:09.661Z,6.75
2023-04-15T07:41:11.186Z,6.57
2023-04-15T07:46:15.713Z,5.63
2023-04-15T07:51:17.370Z,5.30
2023-04-15T07:56:18.661Z,5.15
2023-04-15T08:01:19.975Z,2.58
2023-04-15T08:06:21.400Z,2.58
2023-04-15T08:11:22.785Z,2.80
2023-04-15T08:16:25.414Z,2.25
2023-04-15T08:21:26.955Z,2.25
2023-04-15T08:26:28.207Z,1.98
2023-04-15T08:31:29.712Z,1.80
2023-04-15T08:36:31.462Z,1.38
2023-04-15T08:41:34.650Z,1.88
2023-04-15T08:46:35.996Z,2.10
2023-04-15T08:51:37.659Z,2.00
2023-04-15T08:56:39.271Z,1.83
2023-04-15T09:01:41.292Z,2.33
2023-04-15T09:06:43.043Z,1.90
2023-04-15T09:11:44.380Z,2.10
2023-04-15T09:16:59.737Z,2.13
2023-04-15T09:22:01.999Z,1.83
2023-04-15T09:27:03.587Z,2.20
2023-04-15T09:32:14.295Z,2.15
2023-04-15T09:37:29.057Z,2.50
2023-04-15T09:42:33.258Z,2.20
2023-04-15T09:47:34.900Z,2.17
2023-04-15T09:52:41.296Z,1.85
2023-04-15T09:57:42.708Z,2.60
2023-04-15T10:02:44.162Z,2.70
2023-04-15T10:07:45.619Z,2.60
2023-04-15T10:12:47.157Z,3.40
2023-04-15T10:17:50.919Z,3.40
2023-04-15T10:22:56.503Z,2.83
2023-04-15T10:27:58.169Z,3.38
2023-04-15T10:33:00.389Z,3.00
2023-04-15T10:38:04.465Z,3.45
2023-04-15T10:43:06.692Z,3.03
2023-04-15T10:48:08.220Z,2.78
2023-04-15T10:53:10.478Z,3.00
2023-04-15T10:58:11.986Z,2.83
2023-04-15T11:03:13.457Z,2.20
2023-04-15T11:08:14.894Z,2.65
2023-04-15T11:13:17.366Z,2.60
2023-04-15T11:18:19.561Z,2.70
2023-04-15T11:23:28.973Z,2.17
2023-04-15T11:28:31.263Z,2.30
2023-04-15T11:33:32.997Z,2.38
2023-04-15T11:38:34.340Z,3.08
2023-04-15T11:43:35.838Z,2.42
2023-04-15T11:48:37.215Z,2.33
2023-04-15T11:53:45.985Z,2.70
2023-04-15T11:58:47.635Z,3.28
2023-04-15T12:03:49.573Z,4.20
2023-04-15T12:08:52.578Z,4.25
2023-04-15T12:13:55.597Z,4.53
2023-04-15T12:18:57.909Z,4.60
2023-04-15T12:24:02.012Z,4.93
2023-04-15T12:29:03.595Z,5.10
2023-04-15T12:34:07.984Z,5.72
2023-04-15T12:39:10.445Z,4.90
2023-04-15T12:44:11.758Z,6.43
2023-04-15T12:49:13.176Z,5.90
2023-04-15T12:54:14.444Z,5.85
2023-04-15T12:59:16.049Z,5.05
2023-04-15T13:04:17.650Z,3.95
2023-04-15T13:09:19.015Z,4.65
2023-04-15T13:14:20.453Z,4.53
2023-04-15T13:19:21.794Z,4.82
2023-04-15T13:24:23.274Z,5.05
2023-04-15T13:29:24.660Z,4.95
2023-04-15T13:34:26.186Z,5.05
2023-04-15T13:39:27.497Z,4.70
2023-04-15T13:44:29.724Z,4.28
2023-04-15T13:49:31.046Z,3.92
2023-04-15T13:54:37.908Z,4.10
2023-04-15T13:59:41.561Z,2.50
2023-04-15T14:04:42.843Z,3.00
2023-04-15T14:09:44.559Z,3.03
2023-04-15T14:14:46.143Z,3.15
2023-04-15T14:19:47.517Z,3.05
2023-04-15T14:24:48.845Z,2.65
2023-04-15T14:29:50.229Z,3.78
2023-04-15T14:34:51.506Z,2.72
2023-04-15T14:39:52.835Z,4.72
2023-04-15T14:44:54.164Z,4.70
2023-04-15T14:49:55.781Z,4.65
2023-04-15T14:54:57.235Z,5.70
2023-04-15T14:59:58.521Z,5.40
2023-04-15T15:05:01.065Z,4.70
2023-04-15T15:10:02.530Z,6.90
2023-04-15T15:15:15.486Z,8.48
2023-04-15T15:20:21.251Z,9.63
2023-04-15T15:25:22.547Z,8.48
2023-04-15T15:30:27.399Z,7.70
2023-04-15T15:35:28.878Z,6.65
2023-04-15T15:40:30.366Z,7.00
2023-04-15T15:45:31.728Z,6.30
2023-04-15T15:50:33.449Z,6.30
2023-04-15T15:55:38.141Z,6.03
2023-04-15T19:06:43.142Z,6.93
2023-04-15T19:11:44.517Z,5.47
2023-04-15T19:31:51.785Z,6.85
2023-04-15T19:36:53.221Z,6.82
2023-04-15T19:41:55.271Z,7.63
2023-04-15T19:46:56.880Z,6.80
2023-04-15T19:51:58.685Z,6.72
2023-04-15T20:12:51.625Z,9.65
2023-04-15T20:17:26.401Z,10.00
2023-04-15T21:17:47.132Z,12.82
2023-04-15T21:22:51.136Z,13.63
2023-04-15T21:27:52.571Z,14.35
2023-04-15T21:32:54.231Z,13.13
2023-04-15T21:37:55.580Z,13.23
2023-04-15T21:42:56.867Z,13.40
2023-04-15T21:48:07.578Z,16.15
2023-04-15T21:53:09.544Z,15.70
2023-04-15T21:58:12.579Z,15.90
2023-04-15T22:03:14.522Z,19.58
2023-04-15T22:08:16.051Z,18.55
2023-04-15T22:13:17.420Z,18.65
2023-04-15T22:18:18.731Z,20.48
2023-04-15T22:23:20.005Z,20.27
2023-04-15T22:28:23.985Z,21.92
2023-04-15T22:33:25.368Z,22.38
2023-04-15T22:38:26.641Z,24.08
2023-04-15T22:43:28.013Z,21.92
2023-04-15T22:48:29.408Z,21.05
2023-04-15T22:53:30.675Z,24.75
2023-04-15T22:58:31.964Z,23.65
2023-04-15T23:03:33.453Z,24.70
2023-04-15T23:08:54.626Z,21.65
2023-04-15T23:13:55.856Z,21.10
2023-04-15T23:18:57.222Z,22.55
2023-04-15T23:23:58.513Z,22.50
2023-04-15T23:28:59.863Z,24.80
2023-04-15T23:34:01.245Z,23.75
2023-04-15T23:39:02.599Z,23.77
2023-04-15T23:44:04.309Z,23.10
2023-04-15T23:49:05.621Z,20.23
2023-04-15T23:54:06.982Z,21.10
2023-04-15T23:59:08.593Z,19.92
